Marion, OH

1:53 PM EST on March 06, 2015 (GMT -0500)
Eagle Creek | Change Station
CLOSE
Current Station
Personal Weather Station
Location: Marion, OH
Elevation: 942 ft
Nearby Weather Stations

Elev 942 ft 40.55 °N, 83.16 °W | Updated 44 seconds ago

Clear
Clear
26.4 °F
Feels Like 17 °F
N
9.4
Wind Variable Wind from South

Today
High -- | Low -- °F
--% Chance of Precip.
Yesterday
High -- | Low -- °F
Precip. -- in
6:58 AM 6:29 PM
Full, 99% visible
Pressure 30.54 in
Visibility 9.0 miles
Clouds Few 2600 ft
Windchill 17 °F
Dew Point 10 °F
Humidity 49%
Rainfall in
Snow Depth Not available.
UV 6 out of 12
Pollen .50 out of 12
Air Quality Not available.
Flu Activity Not available.
METAR KMNN 061753Z AUTO 21013KT 9SM FEW026 M07/M13 A3047 RMK AO2 SLP340 T10671128 11067 21194 57019 TSNO

More Conditions Fewer Conditions

Pressure 30.54 in
Visibility 9.0 miles
Clouds Few 2600 ft
Windchill 17 °F
Dew Point 10 °F
Humidity 49%
Rainfall in
Snow Depth Not available.
UV 6 out of 12
Pollen .50 out of 12
Air Quality Not available.
Flu Activity Not available.
METAR KMNN 061753Z AUTO 21013KT 9SM FEW026 M07/M13 A3047 RMK AO2 SLP340 T10671128 11067 21194 57019 TSNO

More Conditions Fewer Conditions

10-Day Weather Forecast

Almanac

Astronomy

Mar. 06, 2015 Rise Set
Actual Time
Civil Twilight
Nautical Twilight
Astronomical Twilight
Moon
Length of Visible Light
Length of Day
Tomorrow will be .
, % of the Moon is Illuminated

Today's Extremes

State Highs State Lows

Community

WunderPhotos

Upload Photos

1,803,367 photos uploaded!

WunderBlogs® & News

Nearby

Air Quality

  Air Quality AQ Index Pollutant
Not available.

Snow Depth

Station Depth Elevation

Earthquake Activity

City Distance Mag. Time & Date
Minimum magnitude displayed is 2.5.

Coastal Water Temperatures

Place Temperature

Nearby Weather Stations